Terminal Aerodrome Forecast
Issued by NWS Billings, MT

Home | Current Version | Previous Version | Text Only | Print | Product List | Glossary Off
Versions: 1 2 3 4 5 6 7 8 9 10 11 12 13

000
FTUS45 KBYZ 220523
TAFMLS
TAF
KMLS 220523Z 2206/2306 05009KT P6SM FEW200
     FM221600 12015KT P6SM SCT150
     FM222200 14011KT P6SM VCTS SCT090CB BKN150=

USA.gov is the U.S. government's official web portal to all federal, state and local government web resources and services.